Time;durP1;ratioP1;P1;durP2;ratioP2;P2;SDS_P1;SDS_P2;PMS_P1;PMS_P2;Temp;Humidity;BMP_temperature;BMP_pressure;BME280_temperature;BME280_humidity;BME280_pressure;Samples;Min_cycle;Max_cycle;Signal;HPM_P1;HPM_P2
2022/06/19 00:01:47;;;;;;;17.20;2.05;;;15.80;99.90;;;;;;5059152;28;20471;-81
2022/06/19 00:04:12;;;;;;;10.77;1.83;;;15.80;99.90;;;;;;5051427;28;20153;-81
2022/06/19 00:06:39;;;;;;;10.85;1.95;;;15.80;99.90;;;;;;5045395;28;20044;-81
2022/06/19 00:09:06;;;;;;;7.47;1.20;;;15.80;99.90;;;;;;5045325;28;20044;-81
2022/06/19 00:11:33;;;;;;;12.38;2.15;;;15.80;99.90;;;;;;5055175;28;20578;-81
2022/06/19 00:14:01;;;;;;;9.25;1.80;;;15.80;99.90;;;;;;5048235;28;20156;-81
2022/06/19 00:16:27;;;;;;;9.30;1.40;;;15.80;99.90;;;;;;5022285;28;20464;-81
2022/06/19 00:18:52;;;;;;;9.88;1.13;;;15.80;99.90;;;;;;5038301;28;20698;-81
2022/06/19 00:21:19;;;;;;;10.05;1.05;;;15.90;99.90;;;;;;5051737;28;20052;-80
2022/06/19 00:23:48;;;;;;;8.60;1.33;;;15.70;99.90;;;;;;5053141;28;20042;-81
2022/06/19 00:26:14;;;;;;;7.95;1.60;;;15.70;99.90;;;;;;5050376;28;20057;-80
2022/06/19 00:28:40;;;;;;;9.60;1.30;;;15.70;99.90;;;;;;5055192;28;20151;-80
2022/06/19 00:31:09;;;;;;;6.55;1.00;;;15.70;99.90;;;;;;5042792;28;20052;-81
2022/06/19 00:33:35;;;;;;;9.15;1.35;;;15.80;99.90;;;;;;5038801;28;20041;-81
2022/06/19 00:36:00;;;;;;;6.57;1.13;;;15.70;99.90;;;;;;5039066;28;20177;-80
2022/06/19 00:38:29;;;;;;;5.57;1.08;;;15.80;99.90;;;;;;5060535;28;20047;-80
2022/06/19 00:40:57;;;;;;;7.88;1.00;;;15.70;99.90;;;;;;5040695;28;20045;-80
2022/06/19 00:43:23;;;;;;;5.75;0.80;;;15.70;99.90;;;;;;5021497;28;20052;-80
2022/06/19 00:45:52;;;;;;;7.80;1.17;;;15.70;99.90;;;;;;5034567;28;20124;-80
2022/06/19 00:48:35;;;;;;;5.15;1.17;;;15.70;99.90;;;;;;5035340;28;20144;-80
2022/06/19 00:51:05;;;;;;;6.70;1.33;;;15.70;99.90;;;;;;5052407;28;20065;-80
2022/06/19 00:53:43;;;;;;;5.85;0.80;;;15.60;99.90;;;;;;5058088;28;20078;-81
2022/06/19 00:56:16;;;;;;;7.72;2.20;;;15.70;99.90;;;;;;5026433;28;20587;-80
2022/06/19 00:58:43;;;;;;;6.68;1.30;;;15.70;99.90;;;;;;5043458;28;20162;-81
2022/06/19 01:01:14;;;;;;;10.48;1.30;;;15.70;99.90;;;;;;5052528;28;20056;-80
2022/06/19 01:04:01;;;;;;;6.32;1.00;;;15.60;99.90;;;;;;5064241;28;20059;-81
2022/06/19 01:06:27;;;;;;;9.38;1.73;;;15.60;99.90;;;;;;5064474;28;20044;-80
2022/06/19 01:08:55;;;;;;;7.63;1.05;;;15.60;99.90;;;;;;5040133;28;20115;-80
2022/06/19 01:11:22;;;;;;;9.10;1.92;;;15.50;99.90;;;;;;5043977;28;20056;-81
2022/06/19 01:13:49;;;;;;;9.70;1.17;;;15.50;99.90;;;;;;5026166;28;20614;-81
2022/06/19 01:16:16;;;;;;;11.77;1.85;;;15.50;99.90;;;;;;5027772;28;20080;-81
2022/06/19 01:18:42;;;;;;;6.40;1.25;;;15.40;99.90;;;;;;5043702;28;20530;-81
2022/06/19 01:21:34;;;;;;;9.13;1.52;;;15.40;99.90;;;;;;5046296;28;20041;-81
2022/06/19 01:24:28;;;;;;;17.13;1.85;;;15.50;99.90;;;;;;5043742;28;20087;-81
2022/06/19 01:26:59;;;;;;;9.18;1.58;;;15.40;99.90;;;;;;5046303;28;20063;-81
2022/06/19 01:29:28;;;;;;;14.73;2.42;;;15.40;99.90;;;;;;5055790;28;20052;-81
2022/06/19 01:31:56;;;;;;;8.00;1.30;;;15.50;99.90;;;;;;5059315;28;20044;-81
2022/06/19 01:34:35;;;;;;;9.10;1.55;;;15.50;99.90;;;;;;5029471;28;20049;-81
2022/06/19 01:37:24;;;;;;;9.30;1.40;;;15.50;99.90;;;;;;5024058;28;20131;-81
2022/06/19 01:39:57;;;;;;;9.23;1.45;;;15.50;99.90;;;;;;5052925;28;20088;-81
2022/06/19 01:42:23;;;;;;;10.82;1.63;;;15.40;99.90;;;;;;5032998;28;20045;-81
2022/06/19 01:44:52;;;;;;;9.57;1.77;;;15.80;99.90;;;;;;5052412;28;20536;-81
2022/06/19 01:47:19;;;;;;;10.65;1.67;;;15.50;99.90;;;;;;5038369;28;20107;-81
2022/06/19 01:49:48;;;;;;;11.30;2.47;;;15.50;99.90;;;;;;5040378;28;20065;-81
2022/06/19 01:52:15;;;;;;;7.15;1.83;;;15.50;99.90;;;;;;5062687;28;20044;-81
2022/06/19 01:54:55;;;;;;;11.15;1.63;;;15.50;99.90;;;;;;5054890;28;20127;-80
2022/06/19 01:57:22;;;;;;;10.48;1.80;;;15.50;99.90;;;;;;5029150;28;20065;-80
2022/06/19 01:59:49;;;;;;;14.35;1.98;;;15.50;99.90;;;;;;5024229;28;20053;-81
2022/06/19 02:02:19;;;;;;;11.55;2.17;;;15.50;99.90;;;;;;5038670;28;20049;-81
2022/06/19 02:04:45;;;;;;;13.05;2.05;;;15.50;99.90;;;;;;5064597;28;20060;-81
2022/06/19 02:07:16;;;;;;;14.85;2.85;;;15.40;99.90;;;;;;5048621;28;20140;-81
2022/06/19 02:09:42;;;;;;;11.30;2.10;;;15.40;99.90;;;;;;5042893;28;20726;-80
2022/06/19 02:12:10;;;;;;;9.57;1.50;;;15.80;99.90;;;;;;5056449;28;20060;-81
2022/06/19 02:14:35;;;;;;;8.27;1.40;;;15.40;99.90;;;;;;5066120;28;20053;-82
2022/06/19 02:17:10;;;;;;;13.18;2.20;;;15.40;99.90;;;;;;5046890;28;20088;-81
2022/06/19 02:19:36;;;;;;;15.77;2.20;;;15.40;99.90;;;;;;5046203;28;20072;-81
2022/06/19 02:22:09;;;;;;;14.82;2.00;;;15.40;99.90;;;;;;5050872;28;20052;-81
2022/06/19 02:24:35;;;;;;;15.05;2.22;;;15.40;99.90;;;;;;5039733;28;20382;-81
2022/06/19 02:27:01;;;;;;;14.20;1.77;;;15.40;99.90;;;;;;5044395;28;20067;-81
2022/06/19 02:29:28;;;;;;;9.48;1.70;;;15.30;99.90;;;;;;5056132;28;20068;-81
2022/06/19 02:31:57;;;;;;;16.75;2.20;;;15.30;99.90;;;;;;5043901;28;20052;-81
2022/06/19 02:34:37;;;;;;;13.27;1.88;;;15.30;99.90;;;;;;5063554;28;20050;-81
2022/06/19 02:37:14;;;;;;;14.95;2.30;;;15.20;99.90;;;;;;5053293;28;20148;-81
2022/06/19 02:40:09;;;;;;;13.13;2.15;;;15.30;99.90;;;;;;5024638;28;20049;-81
2022/06/19 02:42:38;;;;;;;11.60;1.90;;;15.30;99.90;;;;;;5023714;28;20067;-81
2022/06/19 02:45:32;;;;;;;9.43;1.80;;;15.20;99.90;;;;;;5022270;28;20088;-81
2022/06/19 02:48:02;;;;;;;13.10;1.90;;;15.30;99.90;;;;;;5043517;28;20815;-81
2022/06/19 02:50:35;;;;;;;16.02;2.70;;;15.30;99.90;;;;;;5044108;28;20173;-81
2022/06/19 02:53:01;;;;;;;13.73;2.38;;;15.30;99.90;;;;;;5035030;28;20394;-81
2022/06/19 02:55:28;;;;;;;22.60;3.70;;;15.20;99.90;;;;;;5026980;28;20139;-87
2022/06/19 02:57:54;;;;;;;24.50;3.78;;;15.20;99.90;;;;;;5058232;28;20044;-84
2022/06/19 03:00:25;;;;;;;23.38;3.63;;;15.10;99.90;;;;;;5062800;28;20044;-83
2022/06/19 03:02:55;;;;;;;48.30;6.80;;;15.00;99.90;;;;;;5044604;28;20563;-82
2022/06/19 03:05:27;;;;;;;16.77;2.85;;;14.80;99.90;;;;;;5044833;28;20094;-83
2022/06/19 03:07:54;;;;;;;23.02;3.03;;;14.70;99.90;;;;;;5046025;28;20877;-83
2022/06/19 03:10:22;;;;;;;17.35;2.70;;;14.50;99.90;;;;;;5038562;28;20086;-83
2022/06/19 03:12:49;;;;;;;12.75;2.55;;;14.40;99.90;;;;;;5051104;28;20045;-83
2022/06/19 03:15:16;;;;;;;14.90;2.30;;;14.30;99.90;;;;;;5046830;28;20042;-83
2022/06/19 03:17:43;;;;;;;14.85;2.35;;;14.30;99.90;;;;;;5047432;28;20048;-83
2022/06/19 03:20:13;;;;;;;13.88;2.20;;;14.20;99.90;;;;;;5050708;28;20055;-83
2022/06/19 03:22:39;;;;;;;16.75;2.90;;;14.20;99.90;;;;;;5053253;28;20110;-82
2022/06/19 03:25:05;;;;;;;13.00;3.30;;;14.10;99.90;;;;;;5041503;28;20048;-83
2022/06/19 03:27:31;;;;;;;24.83;3.28;;;14.10;99.90;;;;;;5046012;28;20078;-83
2022/06/19 03:29:57;;;;;;;13.65;3.40;;;14.00;99.90;;;;;;5051490;28;20056;-83
2022/06/19 03:32:23;;;;;;;14.27;2.28;;;14.00;99.90;;;;;;5041114;28;20053;-83
2022/06/19 03:34:48;;;;;;;15.07;2.08;;;14.40;99.90;;;;;;5045223;28;20047;-83
2022/06/19 03:37:14;;;;;;;15.02;2.00;;;14.00;99.90;;;;;;5045712;28;20063;-83
2022/06/19 03:39:40;;;;;;;18.02;2.70;;;14.40;99.90;;;;;;5047335;28;20037;-84
2022/06/19 03:42:07;;;;;;;12.88;2.15;;;14.00;99.90;;;;;;5042354;28;20044;-83
2022/06/19 03:44:33;;;;;;;12.85;2.33;;;14.00;99.90;;;;;;5054150;28;20045;-83
2022/06/19 03:46:59;;;;;;;10.38;2.17;;;14.00;99.90;;;;;;5037538;28;20089;-85
2022/06/19 03:49:27;;;;;;;15.90;2.30;;;14.20;99.90;;;;;;5052313;28;20567;-85
2022/06/19 03:51:52;;;;;;;16.88;2.50;;;14.00;99.90;;;;;;5043661;28;20155;-85
2022/06/19 03:54:18;;;;;;;13.00;2.30;;;14.00;99.90;;;;;;5049541;28;20100;-85
2022/06/19 03:56:44;;;;;;;15.07;2.58;;;14.00;99.90;;;;;;5048733;28;20049;-84
2022/06/19 03:59:12;;;;;;;9.90;1.70;;;14.00;99.90;;;;;;5044308;28;20051;-85
2022/06/19 04:01:41;;;;;;;12.15;2.13;;;13.90;99.90;;;;;;5047261;28;20053;-85
2022/06/19 04:04:09;;;;;;;9.88;1.88;;;13.90;99.90;;;;;;5048209;28;20048;-85
2022/06/19 04:06:38;;;;;;;12.07;2.00;;;13.90;99.90;;;;;;5051331;28;20499;-84
2022/06/19 04:09:06;;;;;;;13.40;2.53;;;13.90;99.90;;;;;;5050300;28;20551;-83
2022/06/19 04:11:33;;;;;;;7.97;1.80;;;13.80;99.90;;;;;;5046551;28;20156;-84
2022/06/19 04:13:59;;;;;;;12.70;2.42;;;14.20;99.90;;;;;;5049256;28;20045;-84
2022/06/19 04:16:28;;;;;;;13.93;2.45;;;13.80;99.90;;;;;;5047462;28;20047;-84
2022/06/19 04:18:56;;;;;;;14.27;1.77;;;13.80;99.90;;;;;;5045649;28;20041;-83
2022/06/19 04:21:27;;;;;;;10.48;1.88;;;13.70;99.90;;;;;;5048620;28;20064;-82
2022/06/19 04:23:56;;;;;;;9.60;2.10;;;13.80;99.90;;;;;;5042944;28;20073;-84
2022/06/19 04:26:23;;;;;;;19.00;1.90;;;13.60;99.90;;;;;;5043439;28;20036;-84
2022/06/19 04:28:49;;;;;;;11.02;1.92;;;13.60;99.90;;;;;;5048144;28;20048;-83
2022/06/19 04:31:16;;;;;;;13.20;2.25;;;13.60;99.90;;;;;;5048677;28;20052;-84
2022/06/19 04:33:43;;;;;;;15.75;2.75;;;13.50;99.90;;;;;;5051921;28;20525;-85
2022/06/19 04:36:13;;;;;;;16.63;2.55;;;13.60;99.90;;;;;;5046453;28;20579;-84
2022/06/19 04:38:41;;;;;;;10.98;2.05;;;13.50;99.90;;;;;;5052802;28;20498;-84
2022/06/19 04:41:20;;;;;;;16.92;3.58;;;13.50;99.90;;;;;;5046620;28;20040;-83
2022/06/19 04:43:47;;;;;;;13.38;2.15;;;13.50;99.90;;;;;;5051658;28;20128;-84
2022/06/19 04:46:12;;;;;;;14.45;2.58;;;13.60;99.90;;;;;;5047719;28;20040;-84
2022/06/19 04:48:39;;;;;;;12.35;2.45;;;13.60;99.90;;;;;;5046879;28;20696;-84
2022/06/19 04:51:06;;;;;;;8.75;1.88;;;13.70;99.90;;;;;;5054250;28;20823;-83
2022/06/19 04:53:37;;;;;;;12.98;2.38;;;13.70;99.90;;;;;;5054637;28;20088;-83
2022/06/19 04:56:03;;;;;;;11.70;2.00;;;13.70;99.90;;;;;;5046826;28;20113;-83
2022/06/19 04:58:29;;;;;;;11.70;1.85;;;13.80;99.90;;;;;;5035174;28;20040;-83
2022/06/19 05:00:56;;;;;;;16.02;2.10;;;13.80;99.90;;;;;;5037934;28;20382;-83
2022/06/19 05:03:23;;;;;;;13.10;2.15;;;13.90;99.90;;;;;;5051466;28;20044;-84
2022/06/19 05:05:49;;;;;;;13.02;2.45;;;14.40;99.90;;;;;;5045744;28;20053;-83
2022/06/19 05:08:15;;;;;;;13.38;2.10;;;14.70;99.90;;;;;;5039023;28;20928;-83
2022/06/19 05:10:41;;;;;;;9.85;1.40;;;14.10;99.90;;;;;;5058038;28;20684;-84
2022/06/19 05:13:18;;;;;;;15.70;2.47;;;14.00;99.90;;;;;;5046312;28;20230;-83
2022/06/19 05:15:44;;;;;;;8.13;1.20;;;14.40;99.90;;;;;;5036444;28;20037;-84
2022/06/19 05:18:10;;;;;;;10.02;1.45;;;14.00;99.90;;;;;;5042149;28;20044;-79
2022/06/19 05:20:37;;;;;;;8.07;0.98;;;14.00;99.90;;;;;;5043260;28;20567;-83
2022/06/19 05:23:03;;;;;;;9.50;1.27;;;13.90;99.90;;;;;;5056317;28;20786;-83
2022/06/19 05:25:29;;;;;;;11.55;1.35;;;13.80;99.90;;;;;;5038173;28;20102;-79
2022/06/19 05:27:54;;;;;;;7.30;0.93;;;13.80;99.90;;;;;;5058576;28;20049;-88
2022/06/19 05:30:20;;;;;;;6.68;1.25;;;13.80;99.90;;;;;;5046515;28;20429;-86
2022/06/19 05:32:46;;;;;;;9.23;1.60;;;13.70;99.90;;;;;;5054359;28;20041;-86
2022/06/19 05:35:12;;;;;;;7.45;1.20;;;13.70;99.90;;;;;;5044256;28;20053;-85
2022/06/19 05:37:37;;;;;;;9.75;1.20;;;13.70;99.90;;;;;;5038443;28;20060;-85
2022/06/19 05:40:03;;;;;;;10.55;1.83;;;14.00;99.90;;;;;;5046097;28;20780;-86
2022/06/19 05:42:29;;;;;;;9.48;1.65;;;13.60;99.90;;;;;;5033034;28;20045;-84
2022/06/19 05:44:54;;;;;;;12.23;2.00;;;13.60;99.90;;;;;;5040603;28;20044;-86
2022/06/19 05:47:20;;;;;;;9.00;1.42;;;13.60;99.90;;;;;;5049983;28;20056;-87
2022/06/19 05:49:46;;;;;;;8.98;1.55;;;13.60;99.90;;;;;;5043858;28;20104;-87
2022/06/19 05:52:17;;;;;;;12.63;2.10;;;13.60;99.90;;;;;;5047450;28;20040;-84
2022/06/19 05:54:44;;;;;;;10.85;2.55;;;13.60;99.90;;;;;;5043480;28;20562;-87
2022/06/19 05:57:10;;;;;;;10.50;1.90;;;13.70;99.90;;;;;;5029731;28;20533;-87
2022/06/19 05:59:35;;;;;;;8.73;1.27;;;13.70;99.90;;;;;;5023466;28;20057;-91
2022/06/19 06:02:01;;;;;;;16.27;1.85;;;13.70;99.90;;;;;;5052803;28;20044;-85
2022/06/19 06:04:27;;;;;;;9.32;1.50;;;13.70;99.90;;;;;;5050890;28;21028;-86
2022/06/19 06:06:53;;;;;;;14.38;2.13;;;13.80;99.90;;;;;;5039938;28;20044;-83
2022/06/19 06:09:18;;;;;;;12.40;1.60;;;13.90;99.90;;;;;;5038605;28;20087;-86
2022/06/19 06:11:44;;;;;;;11.15;1.83;;;13.90;99.90;;;;;;5037443;28;20160;-89
2022/06/19 06:14:09;;;;;;;13.55;1.77;;;13.90;99.90;;;;;;5049215;28;20052;-82
2022/06/19 06:16:35;;;;;;;10.32;1.60;;;14.00;99.90;;;;;;5039524;28;20045;-84
2022/06/19 06:19:01;;;;;;;14.60;2.15;;;14.00;99.90;;;;;;5056160;28;20049;-82
2022/06/19 06:21:27;;;;;;;14.25;2.08;;;14.30;99.90;;;;;;5038869;28;20626;-83
2022/06/19 06:23:54;;;;;;;11.40;2.00;;;14.00;99.90;;;;;;5038702;28;20157;-85
2022/06/19 06:26:23;;;;;;;13.68;2.13;;;14.00;99.90;;;;;;5051266;28;20155;-83
2022/06/19 06:28:50;;;;;;;10.80;1.95;;;14.00;99.90;;;;;;5039929;28;20061;-83
2022/06/19 06:31:17;;;;;;;11.77;2.10;;;14.00;99.90;;;;;;5018793;28;20058;-84
2022/06/19 06:33:43;;;;;;;12.43;1.73;;;14.00;99.90;;;;;;5042032;28;20476;-85
2022/06/19 06:36:09;;;;;;;10.65;1.65;;;14.10;99.90;;;;;;5043520;28;20086;-82
2022/06/19 06:38:35;;;;;;;14.63;2.70;;;14.00;99.90;;;;;;5043287;28;20037;-82
2022/06/19 06:41:04;;;;;;;15.73;1.95;;;14.00;99.90;;;;;;5035926;28;20063;-81
2022/06/19 06:43:29;;;;;;;17.25;2.28;;;14.50;99.90;;;;;;5033643;28;20047;-81
2022/06/19 06:46:03;;;;;;;16.30;2.22;;;14.10;99.90;;;;;;5038373;28;20053;-82
2022/06/19 06:48:29;;;;;;;11.50;2.15;;;14.10;99.90;;;;;;5038862;28;20049;-81
2022/06/19 06:50:54;;;;;;;19.80;2.33;;;14.00;99.90;;;;;;5035470;28;20060;-81
2022/06/19 06:53:20;;;;;;;11.00;2.13;;;14.00;99.90;;;;;;5035532;28;20090;-82
2022/06/19 06:55:45;;;;;;;19.15;2.22;;;14.10;99.90;;;;;;5037564;28;20115;-82
2022/06/19 06:58:12;;;;;;;10.88;2.17;;;14.10;99.90;;;;;;5019751;28;20111;-81
2022/06/19 07:00:38;;;;;;;12.60;1.70;;;14.10;99.90;;;;;;5021139;28;20053;-81
2022/06/19 07:03:04;;;;;;;10.85;1.90;;;14.10;99.90;;;;;;5039382;28;20047;-82
2022/06/19 07:05:30;;;;;;;15.82;1.98;;;14.10;99.90;;;;;;5029628;28;20056;-81
2022/06/19 07:07:56;;;;;;;12.65;1.92;;;14.20;99.90;;;;;;5038666;28;20210;-81
2022/06/19 07:10:22;;;;;;;18.05;2.25;;;14.30;99.90;;;;;;5033671;28;20045;-82
2022/06/19 07:12:48;;;;;;;14.07;2.47;;;14.30;99.90;;;;;;5038604;28;20053;-81
2022/06/19 07:15:15;;;;;;;10.93;2.05;;;14.30;99.90;;;;;;5040312;28;20044;-81
2022/06/19 07:17:41;;;;;;;13.05;2.72;;;14.40;99.90;;;;;;5037797;28;20106;-81
2022/06/19 07:20:07;;;;;;;11.48;1.90;;;14.40;99.90;;;;;;5019708;28;20063;-81
2022/06/19 07:22:33;;;;;;;12.88;2.30;;;14.40;99.90;;;;;;5034478;28;20045;-81
2022/06/19 07:24:58;;;;;;;9.27;2.05;;;14.60;99.90;;;;;;5033539;28;20490;-81
2022/06/19 07:27:24;;;;;;;12.07;1.73;;;14.40;99.90;;;;;;5038057;28;20135;-81
2022/06/19 07:29:50;;;;;;;8.82;1.92;;;14.40;99.90;;;;;;5038467;28;20052;-81
2022/06/19 07:32:16;;;;;;;11.32;1.70;;;14.50;99.90;;;;;;5039377;28;20575;-81
2022/06/19 07:34:42;;;;;;;10.77;2.00;;;14.50;99.90;;;;;;5036482;28;20043;-81
2022/06/19 07:37:11;;;;;;;11.57;2.00;;;14.40;99.90;;;;;;5038608;28;20378;-81
2022/06/19 07:39:37;;;;;;;9.65;1.70;;;14.50;99.90;;;;;;5037893;28;20052;-81
2022/06/19 07:42:05;;;;;;;15.05;2.75;;;14.40;99.90;;;;;;5031526;28;20053;-80
2022/06/19 07:44:30;;;;;;;11.73;1.85;;;14.40;99.90;;;;;;5019757;28;20045;-81
2022/06/19 07:52:24;;;;;;;12.27;2.28;;;14.50;99.90;;;;;;5031849;28;20052;-81
2022/06/19 07:54:50;;;;;;;10.93;2.15;;;14.50;99.90;;;;;;5038802;28;20037;-81
2022/06/19 07:57:16;;;;;;;16.60;2.33;;;14.50;99.90;;;;;;5025666;28;20049;-81
2022/06/19 07:59:41;;;;;;;14.98;2.22;;;14.40;99.90;;;;;;5026834;28;20092;-81
2022/06/19 08:02:07;;;;;;;19.67;3.40;;;14.50;99.90;;;;;;5038676;28;20161;-81
2022/06/19 08:04:32;;;;;;;11.63;1.98;;;14.60;99.90;;;;;;5036931;28;20048;-80
2022/06/19 08:06:58;;;;;;;14.15;2.00;;;14.70;99.90;;;;;;5036013;28;20805;-81
2022/06/19 08:09:24;;;;;;;15.18;1.98;;;14.70;99.90;;;;;;5036143;28;20123;-81
2022/06/19 08:11:49;;;;;;;13.52;2.78;;;15.10;99.90;;;;;;5032063;28;20780;-81
2022/06/19 08:14:15;;;;;;;10.77;1.80;;;14.70;99.90;;;;;;5034193;28;20144;-82
2022/06/19 08:16:41;;;;;;;7.75;1.60;;;14.70;99.90;;;;;;5037542;28;20041;-80
2022/06/19 08:19:07;;;;;;;9.13;1.70;;;14.70;99.90;;;;;;5037095;28;20037;-80
2022/06/19 08:21:32;;;;;;;17.70;2.30;;;14.90;99.90;;;;;;5034528;28;20052;-80
2022/06/19 08:23:58;;;;;;;12.65;2.05;;;14.80;99.90;;;;;;5038477;28;20056;-82
2022/06/19 08:26:23;;;;;;;11.27;2.33;;;14.70;99.90;;;;;;5055397;28;20040;-80
2022/06/19 08:28:59;;;;;;;10.40;2.22;;;14.70;99.90;;;;;;5033817;28;20061;-80
2022/06/19 08:31:25;;;;;;;13.60;1.98;;;14.80;99.90;;;;;;5048902;28;20143;-80
2022/06/19 08:33:51;;;;;;;14.07;2.35;;;14.70;99.90;;;;;;5030507;28;20041;-81
2022/06/19 08:36:17;;;;;;;9.65;1.58;;;14.80;99.90;;;;;;5037945;28;20076;-81
2022/06/19 08:38:49;;;;;;;10.43;1.70;;;15.00;99.90;;;;;;5038603;28;20057;-81
2022/06/19 08:41:25;;;;;;;9.23;1.88;;;14.80;99.90;;;;;;5035429;28;20049;-82
2022/06/19 08:44:05;;;;;;;11.32;1.52;;;15.10;99.90;;;;;;5038066;28;20724;-83
2022/06/19 08:47:08;;;;;;;13.20;2.00;;;15.00;99.90;;;;;;5027850;28;20092;-84
2022/06/19 08:49:40;;;;;;;11.88;1.77;;;15.10;99.90;;;;;;5025100;28;20128;-83
2022/06/19 08:52:35;;;;;;;10.48;1.65;;;15.30;99.90;;;;;;5025071;28;20101;-81
2022/06/19 08:55:19;;;;;;;13.60;2.45;;;15.40;99.90;;;;;;5047569;28;20045;-81
2022/06/19 08:58:09;;;;;;;6.90;1.47;;;15.50;99.90;;;;;;5050721;28;20087;-79
2022/06/19 09:00:51;;;;;;;10.93;2.10;;;15.50;99.90;;;;;;5036848;28;20052;-87
2022/06/19 09:06:34;;;;;;;13.88;2.35;;;15.30;99.90;;;;;;5033301;28;20053;-86
2022/06/19 09:09:38;;;;;;;10.88;2.20;;;15.40;99.90;;;;;;5024560;28;20053;-82
2022/06/19 09:12:29;;;;;;;14.15;2.15;;;15.40;99.90;;;;;;5026142;28;20131;-83
2022/06/19 09:15:12;;;;;;;10.82;1.83;;;15.50;99.90;;;;;;5048969;28;20060;-86
2022/06/19 09:17:53;;;;;;;12.25;2.20;;;15.60;99.90;;;;;;5036545;28;20053;-88
2022/06/19 09:20:49;;;;;;;10.80;2.40;;;15.70;99.90;;;;;;5047500;28;20389;-85
2022/06/19 09:23:39;;;;;;;10.30;1.65;;;15.80;99.90;;;;;;5024994;28;20048;-81
2022/06/19 09:26:26;;;;;;;15.85;1.58;;;15.90;99.90;;;;;;5047911;28;20708;-90
2022/06/19 09:29:02;;;;;;;8.27;1.58;;;16.00;99.90;;;;;;5057421;28;20136;-86
2022/06/19 09:31:38;;;;;;;9.68;1.60;;;16.00;99.90;;;;;;5046351;28;20697;-87
2022/06/19 09:34:09;;;;;;;9.48;1.60;;;16.00;99.90;;;;;;5052576;28;20083;-86
2022/06/19 09:36:56;;;;;;;12.55;1.85;;;16.00;99.90;;;;;;5023028;28;20057;-88
2022/06/19 09:39:47;;;;;;;9.27;1.85;;;15.90;99.90;;;;;;5030437;28;20045;-84
2022/06/19 09:42:26;;;;;;;11.35;1.40;;;15.80;99.90;;;;;;5064250;28;20049;-87
2022/06/19 09:45:08;;;;;;;9.48;1.33;;;15.70;99.90;;;;;;5052036;28;20052;-85
2022/06/19 09:47:59;;;;;;;6.72;1.60;;;15.70;99.90;;;;;;5063047;28;20535;-88
2022/06/19 09:50:33;;;;;;;8.25;1.15;;;15.80;99.90;;;;;;5043834;28;20056;-84
2022/06/19 09:53:10;;;;;;;8.65;1.35;;;15.80;99.90;;;;;;5038528;28;20060;-81
2022/06/19 09:55:43;;;;;;;8.55;1.30;;;16.00;99.90;;;;;;5055203;28;20738;-80
2022/06/19 09:58:29;;;;;;;10.10;1.38;;;16.20;99.90;;;;;;5041888;28;20095;-80
2022/06/19 10:00:57;;;;;;;7.18;0.95;;;16.30;99.90;;;;;;5041788;28;20053;-81
2022/06/19 10:03:34;;;;;;;10.32;1.17;;;16.60;99.90;;;;;;5041084;28;20060;-82
2022/06/19 10:06:10;;;;;;;5.90;1.20;;;16.70;99.90;;;;;;5038853;28;20045;-81
2022/06/19 10:08:51;;;;;;;7.72;1.40;;;16.80;99.90;;;;;;5040306;28;20044;-82
2022/06/19 10:11:28;;;;;;;6.28;0.90;;;16.80;99.90;;;;;;5046075;28;20451;-81
2022/06/19 10:14:10;;;;;;;5.70;1.10;;;16.90;99.90;;;;;;5027311;28;20045;-82
2022/06/19 10:17:13;;;;;;;8.70;1.40;;;16.80;99.90;;;;;;5031001;28;20487;-82
2022/06/19 10:19:43;;;;;;;8.02;1.05;;;16.80;99.90;;;;;;5042226;28;20844;-82
2022/06/19 10:22:30;;;;;;;6.75;0.85;;;16.70;99.90;;;;;;5041994;28;20060;-82
2022/06/19 10:25:33;;;;;;;7.05;1.05;;;16.60;99.90;;;;;;5029640;28;20049;-83
2022/06/19 10:28:21;;;;;;;6.63;1.00;;;16.60;99.90;;;;;;5039793;28;20500;-82
2022/06/19 10:31:20;;;;;;;6.22;0.90;;;16.60;99.90;;;;;;5035782;28;20524;-82
2022/06/19 10:34:13;;;;;;;6.38;0.68;;;16.60;99.90;;;;;;5042422;28;20032;-81
2022/06/19 10:37:06;;;;;;;7.72;0.70;;;16.60;99.90;;;;;;5033866;28;20049;-82
2022/06/19 10:40:02;;;;;;;4.47;0.90;;;16.60;99.90;;;;;;5023429;28;20088;-82
2022/06/19 10:43:11;;;;;;;6.43;0.90;;;16.70;99.90;;;;;;5029137;28;20044;-86
2022/06/19 10:45:51;;;;;;;6.78;1.08;;;16.70;99.90;;;;;;5031323;28;20055;-85
2022/06/19 10:48:31;;;;;;;7.63;1.63;;;16.80;99.90;;;;;;5039675;28;20057;-90
2022/06/19 10:51:24;;;;;;;7.25;1.00;;;16.70;99.90;;;;;;5071531;28;20179;-92
2022/06/19 10:54:01;;;;;;;5.65;1.25;;;16.70;99.90;;;;;;5063151;28;20082;-90
2022/06/19 10:56:40;;;;;;;4.93;0.95;;;16.70;99.90;;;;;;5044120;28;20079;-87
2022/06/19 10:59:06;;;;;;;3.70;0.70;;;16.70;99.90;;;;;;5049776;28;20558;-90
2022/06/19 11:05:03;;;;;;;6.18;0.95;;;16.80;99.90;;;;;;5054893;28;20045;-91
2022/06/19 11:07:30;;;;;;;4.38;1.25;;;16.80;99.90;;;;;;5054083;28;20056;-88
2022/06/19 11:10:03;;;;;;;5.07;0.57;;;16.90;99.90;;;;;;5058529;28;20048;-83
2022/06/19 11:12:38;;;;;;;6.57;0.95;;;16.90;99.90;;;;;;5038404;28;20049;-87
2022/06/19 11:15:20;;;;;;;4.88;0.80;;;16.90;99.90;;;;;;5045143;28;20040;-89
2022/06/19 11:17:46;;;;;;;6.22;0.77;;;16.90;99.90;;;;;;5036471;28;20048;-86
2022/06/19 11:20:30;;;;;;;5.32;0.85;;;16.90;99.90;;;;;;5050243;28;20053;-89
2022/06/19 11:23:21;;;;;;;4.43;1.00;;;16.90;99.90;;;;;;5043025;28;20060;-84
2022/06/19 11:26:16;;;;;;;2.50;0.60;;;16.80;99.90;;;;;;5025164;28;20049;-86
2022/06/19 11:28:51;;;;;;;4.20;0.50;;;16.60;99.90;;;;;;5024935;28;20708;-86
2022/06/19 11:31:19;;;;;;;;;;;16.60;99.90;;;;;;5040823;28;20095;-85
2022/06/19 11:33:47;;;;;;;5.03;0.73;;;16.60;99.90;;;;;;5041832;28;19932;-84
2022/06/19 11:36:39;;;;;;;5.13;0.60;;;16.50;99.90;;;;;;5050944;28;20151;-82
2022/06/19 11:39:37;;;;;;;4.13;0.82;;;16.50;99.90;;;;;;5065977;28;20058;-86
2022/06/19 11:42:18;;;;;;;4.18;0.60;;;16.50;99.90;;;;;;5040492;28;20055;-83
2022/06/19 11:45:00;;;;;;;3.33;0.50;;;16.50;99.90;;;;;;5046470;28;20040;-84
2022/06/19 11:47:39;;;;;;;2.72;0.65;;;16.50;99.90;;;;;;5026398;28;21051;-85
2022/06/19 11:50:10;;;;;;;2.05;0.50;;;16.40;99.90;;;;;;5048593;28;20049;-85
2022/06/19 11:52:37;;;;;;;1.67;0.30;;;16.40;99.90;;;;;;5051211;28;20488;-93
2022/06/19 11:55:13;;;;;;;1.58;0.40;;;16.40;99.90;;;;;;5046103;28;20041;-85
2022/06/19 11:57:39;;;;;;;1.67;0.30;;;16.40;99.90;;;;;;5035715;28;20076;-81
2022/06/19 12:00:05;;;;;;;1.13;0.30;;;16.30;99.90;;;;;;5038406;28;20068;-90
2022/06/19 12:02:38;;;;;;;4.22;0.70;;;16.30;99.90;;;;;;5044401;28;20052;-86
2022/06/19 12:05:38;;;;;;;3.00;0.50;;;16.30;99.90;;;;;;5034415;28;20135;-90
2022/06/19 12:08:18;;;;;;;2.15;0.40;;;16.30;99.90;;;;;;5034889;28;20068;-85
2022/06/19 12:10:55;;;;;;;4.80;0.73;;;16.30;99.90;;;;;;5039423;28;20101;-82
2022/06/19 12:13:30;;;;;;;3.70;0.60;;;16.40;99.90;;;;;;5041107;28;20206;-82
2022/06/19 12:16:11;;;;;;;2.50;0.52;;;16.30;99.90;;;;;;5040903;28;20047;-85
2022/06/19 12:18:37;;;;;;;3.50;0.50;;;16.30;99.90;;;;;;5039749;28;20049;-88
2022/06/19 12:21:18;;;;;;;1.88;0.40;;;16.40;99.90;;;;;;5040908;28;20105;-80
2022/06/19 12:24:08;;;;;;;3.33;0.60;;;16.30;99.90;;;;;;5037703;28;20053;-83
2022/06/19 12:26:39;;;;;;;1.98;0.47;;;16.40;99.90;;;;;;5038077;28;20102;-79
2022/06/19 12:29:36;;;;;;;4.28;0.80;;;16.40;99.90;;;;;;5038011;28;20072;-79
2022/06/19 12:32:11;;;;;;;3.65;0.63;;;16.40;99.90;;;;;;5046391;28;20053;-80
2022/06/19 12:34:42;;;;;;;4.40;0.90;;;16.50;99.90;;;;;;5040044;28;20062;-80
2022/06/19 12:37:17;;;;;;;4.30;1.02;;;16.70;99.90;;;;;;5034166;28;20136;-80
2022/06/19 12:39:44;;;;;;;5.38;0.68;;;16.80;99.90;;;;;;5050345;28;20119;-87
2022/06/19 12:42:46;;;;;;;3.97;0.80;;;16.90;99.90;;;;;;5023550;28;20587;-84
2022/06/19 12:45:36;;;;;;;3.60;0.80;;;17.00;99.90;;;;;;5048866;28;20049;-82
2022/06/19 12:48:29;;;;;;;5.32;0.85;;;17.00;99.90;;;;;;5047995;28;20113;-79
2022/06/19 12:51:13;;;;;;;5.63;1.10;;;17.00;99.90;;;;;;5045042;28;20053;-82
2022/06/19 12:53:44;;;;;;;5.43;1.20;;;17.10;99.90;;;;;;5059011;28;20057;-87
2022/06/19 12:56:47;;;;;;;3.58;0.73;;;17.20;99.90;;;;;;5051024;28;20045;-88
2022/06/19 12:59:47;;;;;;;5.28;0.90;;;17.20;99.90;;;;;;5049527;28;20226;-80
2022/06/19 13:02:42;;;;;;;6.45;0.90;;;17.10;99.90;;;;;;5045675;28;20040;-81
2022/06/19 13:05:17;;;;;;;6.18;0.80;;;17.00;99.90;;;;;;5045251;28;20058;-81
2022/06/19 13:07:58;;;;;;;8.85;0.80;;;16.90;99.90;;;;;;5048240;28;20056;-80
2022/06/19 13:11:05;;;;;;;7.68;1.25;;;16.90;99.90;;;;;;5056520;28;20482;-78
2022/06/19 13:13:53;;;;;;;7.57;1.10;;;16.90;99.90;;;;;;5036658;28;20131;-77
2022/06/19 13:16:30;;;;;;;10.52;1.05;;;16.90;99.90;;;;;;5029841;28;20044;-80
2022/06/19 13:18:55;;;;;;;6.93;1.20;;;16.90;99.90;;;;;;5041829;28;20071;-79
2022/06/19 13:21:47;;;;;;;8.23;1.40;;;16.80;99.90;;;;;;5039967;28;20456;-78